createdAt,value
2022-11-05T00:01:52.514Z,77.61
2022-11-05T00:04:38.262Z,77.14
2022-11-05T00:07:50.578Z,79.91
2022-11-05T00:10:22.439Z,80.36
2022-11-05T00:13:08.758Z,80.80
2022-11-05T00:15:54.892Z,79.20
2022-11-05T00:18:21.963Z,80.73
2022-11-05T00:20:49.097Z,82.64
2022-11-05T00:23:35.075Z,82.96
2022-11-05T00:26:06.587Z,80.82
2022-11-05T00:28:34.162Z,76.10
2022-11-05T00:31:05.890Z,78.70
2022-11-05T00:33:32.910Z,80.66
2022-11-05T00:36:02.022Z,78.93
2022-11-05T00:38:29.760Z,78.73
2022-11-05T00:40:56.759Z,78.62
2022-11-05T00:43:42.485Z,79.09
2022-11-05T00:46:09.538Z,77.93
2022-11-05T00:48:55.251Z,77.83
2022-11-05T00:51:22.499Z,78.41
2022-11-05T00:53:49.555Z,74.42
2022-11-05T00:56:16.603Z,76.46
2022-11-05T00:58:43.565Z,78.56
2022-11-05T01:01:10.629Z,78.82
2022-11-05T01:03:38.942Z,80.29
2022-11-05T01:06:08.392Z,79.84
2022-11-05T01:08:35.931Z,78.96
2022-11-05T01:11:12.838Z,79.07
2022-11-05T01:13:40.540Z,73.23
2022-11-05T01:16:09.852Z,70.77
2022-11-05T01:18:38.855Z,70.99
2022-11-05T01:21:13.764Z,75.12
2022-11-05T01:23:41.369Z,72.53
2022-11-05T01:26:08.957Z,74.33
2022-11-05T01:28:36.329Z,76.57
2022-11-05T01:31:03.477Z,75.08
2022-11-05T01:33:30.541Z,76.75
2022-11-05T01:35:57.679Z,70.86
2022-11-05T01:38:24.740Z,70.07
2022-11-05T01:40:51.772Z,68.81
2022-11-05T01:43:22.593Z,71.16
2022-11-05T01:45:51.234Z,68.72
2022-11-05T01:48:20.491Z,66.90
2022-11-05T01:50:53.503Z,70.16
2022-11-05T01:53:24.249Z,73.15
2022-11-05T01:56:03.110Z,71.61
2022-11-05T01:58:41.702Z,74.29
2022-11-05T02:01:09.051Z,68.27
2022-11-05T02:03:36.046Z,67.45
2022-11-05T02:06:03.828Z,76.33
2022-11-05T02:08:36.817Z,72.57
2022-11-05T02:11:03.931Z,77.10
2022-11-05T02:13:30.946Z,68.76
2022-11-05T02:15:57.950Z,72.89
2022-11-05T02:18:24.934Z,71.47
2022-11-05T02:21:06.603Z,77.36
2022-11-05T02:23:54.778Z,76.14
2022-11-05T02:26:49.156Z,71.76
2022-11-05T02:29:29.866Z,73.55
2022-11-05T02:32:12.215Z,75.07
2022-11-05T02:34:50.116Z,75.83
2022-11-05T02:37:17.116Z,76.50
2022-11-05T02:39:59.018Z,73.95
2022-11-05T02:42:35.100Z,74.23
2022-11-05T02:45:14.070Z,73.44
2022-11-05T02:47:44.083Z,75.89
2022-11-05T02:50:14.009Z,76.92
2022-11-05T02:52:59.423Z,76.19
2022-11-05T02:55:45.394Z,73.70
2022-11-05T02:58:12.431Z,75.54
2022-11-05T03:00:50.616Z,73.14
2022-11-05T03:03:23.682Z,72.81
2022-11-05T03:06:09.142Z,68.69
2022-11-05T03:08:52.155Z,73.10
2022-11-05T03:11:20.875Z,72.83
2022-11-05T03:14:03.116Z,65.74
2022-11-05T03:16:39.265Z,71.00
2022-11-05T03:19:12.958Z,68.15
2022-11-05T03:21:49.399Z,70.36
2022-11-05T03:24:16.406Z,62.72
2022-11-05T03:26:48.858Z,62.97
2022-11-05T03:29:25.090Z,61.82
2022-11-05T03:31:54.214Z,60.71
2022-11-05T03:34:24.845Z,59.88
2022-11-05T03:36:54.184Z,62.52
2022-11-05T03:39:27.086Z,66.65
2022-11-05T03:41:55.550Z,65.27
2022-11-05T03:44:28.427Z,68.22
2022-11-05T03:47:00.290Z,69.21
2022-11-05T03:49:30.916Z,63.97
2022-11-05T03:52:18.324Z,62.49
2022-11-05T03:54:45.794Z,63.03
2022-11-05T03:57:25.036Z,57.99
2022-11-05T03:59:52.127Z,64.27
2022-11-05T04:02:20.349Z,66.13
2022-11-05T04:04:47.843Z,64.29
2022-11-05T04:07:33.756Z,64.35
2022-11-05T04:10:19.715Z,65.45
2022-11-05T04:13:05.499Z,66.80
2022-11-05T04:15:55.479Z,68.63
2022-11-05T04:18:22.748Z,67.32
2022-11-05T04:21:08.549Z,68.44
2022-11-05T04:23:54.362Z,67.89
2022-11-05T04:26:23.228Z,68.57
2022-11-05T04:29:09.299Z,68.71
2022-11-05T04:31:36.725Z,69.17
2022-11-05T04:34:03.766Z,69.03
2022-11-05T04:36:30.835Z,68.58
2022-11-05T04:38:57.804Z,69.68
2022-11-05T04:41:24.790Z,68.60
2022-11-05T04:43:52.310Z,68.97
2022-11-05T04:46:19.288Z,69.63
2022-11-05T04:48:46.284Z,68.87
2022-11-05T04:51:13.292Z,65.48
2022-11-05T04:53:40.293Z,69.75
2022-11-05T04:56:20.917Z,69.28
2022-11-05T04:58:48.033Z,67.74
2022-11-05T05:01:16.486Z,63.89
2022-11-05T05:03:43.751Z,63.30
2022-11-05T05:06:11.192Z,64.95
2022-11-05T05:08:38.226Z,63.46
2022-11-05T05:11:06.376Z,66.25
2022-11-05T05:13:33.966Z,61.40
2022-11-05T05:16:04.963Z,64.51
2022-11-05T05:18:31.958Z,64.78
2022-11-05T05:21:17.657Z,67.16
2022-11-05T05:23:46.336Z,68.58
2022-11-05T05:26:13.390Z,68.39
2022-11-05T05:28:40.351Z,68.19
2022-11-05T05:31:07.582Z,71.28
2022-11-05T05:33:35.028Z,72.01
2022-11-05T05:36:05.813Z,73.33
2022-11-05T05:38:37.408Z,73.76
2022-11-05T05:41:04.793Z,74.58
2022-11-05T05:43:33.655Z,77.14
2022-11-05T05:46:06.023Z,77.34
2022-11-05T05:48:33.674Z,79.31
2022-11-05T05:51:08.950Z,77.05
2022-11-05T05:53:36.217Z,77.26
2022-11-05T05:56:04.823Z,77.86
2022-11-05T05:58:35.528Z,76.74
2022-11-05T06:01:05.659Z,76.00
2022-11-05T06:03:33.264Z,75.87
2022-11-05T06:06:02.651Z,75.89
2022-11-05T06:08:30.370Z,76.36
2022-11-05T06:10:58.651Z,75.55
2022-11-05T06:13:26.738Z,75.26
2022-11-05T06:15:54.211Z,76.87
2022-11-05T06:18:21.426Z,76.04
2022-11-05T06:20:48.669Z,74.07
2022-11-05T06:23:15.887Z,76.25
2022-11-05T06:25:43.153Z,76.06
2022-11-05T06:28:10.417Z,76.29
2022-11-05T06:30:37.662Z,74.99
2022-11-05T06:33:05.375Z,74.61
2022-11-05T06:35:32.823Z,75.21
2022-11-05T06:38:03.077Z,73.73
2022-11-05T06:40:30.372Z,74.98
2022-11-05T06:42:57.583Z,74.55
2022-11-05T06:45:24.903Z,74.10
2022-11-05T06:47:59.287Z,76.80
2022-11-05T06:50:27.838Z,76.93
2022-11-05T06:52:57.040Z,75.99
2022-11-05T06:55:25.653Z,75.48
2022-11-05T06:57:52.951Z,75.36
2022-11-05T07:00:20.760Z,79.12
2022-11-05T07:02:49.342Z,77.01
2022-11-05T07:05:16.915Z,77.51
2022-11-05T07:07:45.225Z,75.78
2022-11-05T07:10:15.298Z,78.01
2022-11-05T07:12:42.807Z,78.18
2022-11-05T07:15:12.181Z,76.47
2022-11-05T07:17:40.298Z,76.44
2022-11-05T07:20:08.466Z,76.63
2022-11-05T07:22:36.744Z,75.39
2022-11-05T07:25:05.856Z,75.08
2022-11-05T07:27:43.783Z,75.26
2022-11-05T07:30:11.767Z,74.28
2022-11-05T07:32:42.211Z,71.85
2022-11-05T07:35:10.374Z,70.12
2022-11-05T07:37:49.055Z,66.41
2022-11-05T07:40:18.640Z,62.69
2022-11-05T07:42:49.404Z,58.47
2022-11-05T07:45:17.000Z,56.76
2022-11-05T07:47:53.891Z,53.91
2022-11-05T07:50:23.488Z,54.90
2022-11-05T07:52:51.307Z,55.34
2022-11-05T07:55:19.855Z,54.25
2022-11-05T07:57:49.352Z,61.07
2022-11-05T08:00:22.318Z,52.50
2022-11-05T08:03:09.330Z,55.01
2022-11-05T08:05:40.183Z,53.75
2022-11-05T08:08:08.694Z,48.26
2022-11-05T08:10:37.275Z,49.38
2022-11-05T08:13:05.567Z,46.84
2022-11-05T08:15:33.688Z,46.41
2022-11-05T08:18:12.376Z,46.60
2022-11-05T08:20:41.483Z,46.63
2022-11-05T08:23:09.382Z,45.23
2022-11-05T08:25:37.286Z,45.06
2022-11-05T08:28:07.713Z,45.15
2022-11-05T08:30:35.414Z,44.91
2022-11-05T08:33:06.902Z,44.13
2022-11-05T08:35:36.024Z,44.95
2022-11-05T08:38:06.227Z,45.13
2022-11-05T08:40:35.464Z,44.44
2022-11-05T08:43:04.912Z,43.27
2022-11-05T08:45:33.088Z,42.69
2022-11-05T08:48:01.029Z,43.73
2022-11-05T08:50:28.794Z,44.02
2022-11-05T08:52:56.260Z,43.74
2022-11-05T08:55:23.586Z,42.42
2022-11-05T08:58:11.313Z,42.36
2022-11-05T09:00:39.160Z,43.00
2022-11-05T09:03:08.721Z,41.22
2022-11-05T09:05:39.122Z,42.21
2022-11-05T09:08:12.411Z,41.31
2022-11-05T09:10:40.316Z,40.37
2022-11-05T09:13:09.643Z,42.85
2022-11-05T09:15:41.163Z,41.99
2022-11-05T09:18:12.885Z,42.03
2022-11-05T09:20:40.342Z,40.42
2022-11-05T09:23:08.990Z,41.45
2022-11-05T09:25:36.750Z,40.09
2022-11-05T09:28:21.274Z,40.00
2022-11-05T09:30:52.694Z,41.21
2022-11-05T09:33:23.003Z,41.47
2022-11-05T09:35:50.510Z,41.75
2022-11-05T09:38:18.047Z,41.60
2022-11-05T09:40:50.623Z,41.74
2022-11-05T09:43:21.393Z,43.02
2022-11-05T09:45:54.098Z,41.72
2022-11-05T09:48:27.652Z,43.08
2022-11-05T09:50:55.253Z,40.94
2022-11-05T09:53:23.790Z,39.62
2022-11-05T09:55:59.626Z,40.49
2022-11-05T09:58:46.110Z,41.18
2022-11-05T10:01:21.452Z,40.55
2022-11-05T10:03:52.089Z,41.15
2022-11-05T10:06:22.325Z,41.99
2022-11-05T10:08:57.549Z,42.18
2022-11-05T10:11:40.513Z,42.12
2022-11-05T10:14:21.705Z,42.11
2022-11-05T10:16:57.744Z,42.28
2022-11-05T10:19:38.348Z,42.28
2022-11-05T10:22:12.281Z,41.45
2022-11-05T10:24:42.690Z,39.69
2022-11-05T10:27:17.192Z,36.78
2022-11-05T10:29:44.615Z,36.50
2022-11-05T10:32:37.306Z,36.65
2022-11-05T10:35:06.514Z,37.89
2022-11-05T10:37:39.568Z,38.54
2022-11-05T10:40:39.578Z,39.61
2022-11-05T10:43:14.945Z,41.03
2022-11-05T10:46:11.649Z,41.02
2022-11-05T10:48:43.476Z,42.19
2022-11-05T10:51:11.740Z,42.12
2022-11-05T10:53:39.818Z,42.74
2022-11-05T10:56:34.470Z,43.00
2022-11-05T10:59:06.714Z,42.69
2022-11-05T11:01:36.918Z,42.09
2022-11-05T11:04:25.516Z,43.08
2022-11-05T11:06:58.551Z,43.51
2022-11-05T11:09:28.969Z,41.97
2022-11-05T11:12:01.809Z,40.48
2022-11-05T11:14:29.343Z,40.23
2022-11-05T11:17:24.483Z,39.49
2022-11-05T11:19:53.485Z,39.06
2022-11-05T11:22:21.617Z,40.97
2022-11-05T11:24:53.814Z,40.13
2022-11-05T11:27:27.927Z,39.18
2022-11-05T11:29:58.851Z,40.16
2022-11-05T11:32:47.462Z,38.56
2022-11-05T11:35:22.175Z,39.98
2022-11-05T11:37:52.963Z,38.66
2022-11-05T11:40:30.115Z,40.13
2022-11-05T11:43:00.346Z,41.01
2022-11-05T11:45:32.727Z,40.71
2022-11-05T11:48:05.030Z,41.22
2022-11-05T11:50:50.555Z,41.56
2022-11-05T11:53:20.937Z,41.24
2022-11-05T11:56:26.515Z,39.46
2022-11-05T11:58:56.400Z,38.91
2022-11-05T12:01:29.685Z,39.85
2022-11-05T12:04:25.302Z,39.73
2022-11-05T12:07:10.382Z,40.16
2022-11-05T12:10:09.027Z,39.68
2022-11-05T12:12:56.201Z,40.25
2022-11-05T12:15:44.351Z,40.35
2022-11-05T12:18:50.075Z,41.29
2022-11-05T12:21:51.586Z,40.79
2022-11-05T12:24:47.819Z,41.01
2022-11-05T12:27:30.079Z,41.78
2022-11-05T12:30:09.386Z,41.32
2022-11-05T12:32:45.757Z,42.32
2022-11-05T12:35:34.455Z,42.81
2022-11-05T12:38:20.254Z,41.42
2022-11-05T12:41:17.843Z,42.23
2022-11-05T12:43:57.883Z,42.79
2022-11-05T12:46:33.337Z,41.69
2022-11-05T12:49:37.898Z,42.54
2022-11-05T12:52:20.187Z,42.26
2022-11-05T12:55:05.492Z,42.82
2022-11-05T12:57:38.766Z,42.51
2022-11-05T13:00:29.367Z,43.23
2022-11-05T13:03:15.346Z,43.06
2022-11-05T13:05:48.456Z,42.74
2022-11-05T13:08:23.123Z,42.76
2022-11-05T13:10:55.525Z,43.60
2022-11-05T13:13:38.505Z,42.92
2022-11-05T13:16:33.900Z,42.75
2022-11-05T13:19:31.949Z,44.48
2022-11-05T13:22:09.631Z,43.93
2022-11-05T13:24:48.368Z,44.52
2022-11-05T13:27:43.433Z,45.62
2022-11-05T13:30:17.801Z,44.46
2022-11-05T13:33:14.521Z,41.45
2022-11-05T13:35:49.452Z,42.36
2022-11-05T13:38:44.797Z,42.17
2022-11-05T13:41:19.303Z,41.24
2022-11-05T13:44:17.451Z,42.54
2022-11-05T13:46:56.722Z,40.79
2022-11-05T13:50:01.082Z,40.84
2022-11-05T13:52:49.678Z,40.17
2022-11-05T13:55:36.008Z,39.60
2022-11-05T13:58:34.680Z,39.01
2022-11-05T14:01:25.686Z,39.79
2022-11-05T14:03:55.803Z,39.41
2022-11-05T14:06:29.670Z,40.10
2022-11-05T14:09:01.499Z,39.66
2022-11-05T14:11:36.231Z,39.33
2022-11-05T14:14:22.947Z,39.55
2022-11-05T14:16:54.367Z,39.13
2022-11-05T14:19:32.391Z,39.87
2022-11-05T14:22:00.260Z,41.37
2022-11-05T14:24:41.393Z,40.99
2022-11-05T14:27:10.207Z,41.70
2022-11-05T14:29:44.342Z,40.47
2022-11-05T14:32:21.535Z,41.45
2022-11-05T14:34:54.649Z,41.00
2022-11-05T14:37:26.099Z,40.05
2022-11-05T14:39:57.615Z,41.82
2022-11-05T14:42:30.119Z,43.58
2022-11-05T14:45:02.741Z,44.01
2022-11-05T14:47:38.830Z,43.22
2022-11-05T14:50:18.074Z,43.55
2022-11-05T14:52:57.789Z,43.94
2022-11-05T14:55:29.094Z,45.32
2022-11-05T14:57:56.256Z,45.41
2022-11-05T15:00:29.604Z,46.27
2022-11-05T15:03:02.642Z,47.83
2022-11-05T15:05:37.793Z,46.59
2022-11-05T15:08:24.714Z,49.15
2022-11-05T15:10:54.367Z,50.13
2022-11-05T15:13:36.436Z,50.80
2022-11-05T15:16:05.966Z,50.73
2022-11-05T15:18:38.677Z,53.51
2022-11-05T15:21:11.717Z,52.37
2022-11-05T15:23:43.379Z,54.08
2022-11-05T15:26:36.479Z,56.38
2022-11-05T15:29:16.495Z,58.25
2022-11-05T15:31:45.388Z,58.52
2022-11-05T15:34:49.950Z,60.20
2022-11-05T15:37:17.158Z,61.70
2022-11-05T15:39:46.851Z,63.42
2022-11-05T15:42:23.103Z,64.17
2022-11-05T15:44:54.998Z,64.67
2022-11-05T15:47:34.834Z,65.51
2022-11-05T15:50:15.533Z,66.33
2022-11-05T15:52:51.579Z,66.12
2022-11-05T15:55:23.719Z,66.31
2022-11-05T15:57:51.584Z,65.55
2022-11-05T16:00:25.621Z,66.14
2022-11-05T16:03:03.077Z,67.70
2022-11-05T16:05:34.599Z,68.06
2022-11-05T16:08:04.268Z,69.39
2022-11-05T16:10:36.798Z,69.23
2022-11-05T16:13:34.292Z,70.66
2022-11-05T16:16:04.865Z,71.04
2022-11-05T16:18:40.064Z,70.08
2022-11-05T16:21:13.664Z,71.45
2022-11-05T16:23:50.090Z,70.24
2022-11-05T16:27:02.254Z,69.14
2022-11-05T16:29:32.219Z,70.00
2022-11-05T16:32:02.768Z,70.89
2022-11-05T16:34:52.478Z,71.26
2022-11-05T16:37:22.500Z,73.61
2022-11-05T16:39:50.624Z,72.11
2022-11-05T16:42:24.410Z,73.57
2022-11-05T16:44:53.936Z,72.72
2022-11-05T16:47:22.115Z,72.60
2022-11-05T16:49:50.774Z,74.17
2022-11-05T16:52:18.502Z,74.80
2022-11-05T16:54:45.751Z,75.60
2022-11-05T16:57:27.079Z,74.83
2022-11-05T16:59:55.455Z,74.80
2022-11-05T17:02:22.864Z,75.66
2022-11-05T17:04:50.448Z,75.75
2022-11-05T17:07:18.062Z,75.57
2022-11-05T17:09:45.380Z,75.06
2022-11-05T17:12:13.450Z,74.37
2022-11-05T17:14:40.799Z,74.44
2022-11-05T17:17:08.055Z,75.10
2022-11-05T17:19:35.383Z,75.79
2022-11-05T17:22:02.654Z,75.68
2022-11-05T17:24:29.882Z,74.45
2022-11-05T17:26:57.044Z,74.25
2022-11-05T17:29:24.308Z,74.36
2022-11-05T17:31:51.595Z,75.16
2022-11-05T17:34:18.974Z,75.59
2022-11-05T17:36:46.380Z,75.68
2022-11-05T17:39:13.629Z,76.63
2022-11-05T17:41:40.971Z,76.43
2022-11-05T17:44:10.611Z,77.03
2022-11-05T17:46:37.998Z,76.36
2022-11-05T17:49:05.379Z,76.48
2022-11-05T17:51:34.197Z,77.03
2022-11-05T17:54:01.545Z,77.52
2022-11-05T17:56:34.407Z,77.59
2022-11-05T17:59:03.397Z,77.69
2022-11-05T18:01:33.122Z,77.29
2022-11-05T18:04:07.142Z,78.35
2022-11-05T18:06:37.467Z,78.96
2022-11-05T18:09:06.455Z,78.71
2022-11-05T18:11:34.392Z,79.45
2022-11-05T18:14:02.033Z,79.03
2022-11-05T18:16:29.979Z,78.09
2022-11-05T18:18:57.324Z,79.26
2022-11-05T18:21:24.726Z,79.91
2022-11-05T18:23:51.898Z,79.59
2022-11-05T18:26:19.723Z,79.70
2022-11-05T18:28:46.929Z,79.59
2022-11-05T18:31:18.389Z,79.13
2022-11-05T18:33:46.998Z,79.78
2022-11-05T18:36:22.248Z,80.59
2022-11-05T18:38:51.583Z,80.58
2022-11-05T18:41:20.007Z,80.46
2022-11-05T18:43:47.917Z,81.05
2022-11-05T18:46:35.843Z,81.01
2022-11-05T18:49:03.018Z,81.44
2022-11-05T18:51:30.521Z,81.40
2022-11-05T18:53:57.864Z,80.18
2022-11-05T18:56:25.032Z,80.62
2022-11-05T18:59:15.068Z,80.92
2022-11-05T19:01:43.066Z,80.09
2022-11-05T19:04:10.307Z,80.14
2022-11-05T19:06:37.346Z,81.94
2022-11-05T19:09:05.388Z,82.52
2022-11-05T19:11:32.921Z,82.21
2022-11-05T19:14:00.255Z,83.19
2022-11-05T19:16:28.045Z,82.67
2022-11-05T19:18:57.836Z,83.80
2022-11-05T19:21:25.611Z,84.79
2022-11-05T19:23:53.337Z,85.49
2022-11-05T19:26:27.256Z,84.21
2022-11-05T19:28:58.592Z,85.30
2022-11-05T19:31:26.903Z,86.32
2022-11-05T19:33:57.882Z,86.91
2022-11-05T19:36:25.453Z,86.71
2022-11-05T19:38:57.391Z,86.95
2022-11-05T19:41:24.866Z,86.65
2022-11-05T19:43:54.316Z,87.79
2022-11-05T19:46:22.736Z,87.15
2022-11-05T19:48:50.188Z,88.75
2022-11-05T19:51:18.770Z,87.54
2022-11-05T19:53:45.842Z,88.98
2022-11-05T19:56:16.948Z,87.84
2022-11-05T19:58:44.589Z,88.79
2022-11-05T20:01:12.744Z,88.90
2022-11-05T20:03:40.349Z,88.85
2022-11-05T20:06:18.954Z,89.58
2022-11-05T20:09:15.215Z,87.65
2022-11-05T20:11:35.899Z,89.91
2022-11-05T20:14:04.833Z,90.83
2022-11-05T20:16:36.851Z,89.65
2022-11-05T20:19:05.173Z,90.38
2022-11-05T20:21:32.756Z,88.93
2022-11-05T20:23:59.863Z,90.99
2022-11-05T20:26:27.500Z,89.48
2022-11-05T20:28:54.773Z,88.09
2022-11-05T20:31:21.928Z,88.70
2022-11-05T20:33:48.971Z,88.22
2022-11-05T20:36:17.210Z,89.77
2022-11-05T20:38:47.804Z,88.57
2022-11-05T20:41:15.027Z,89.05
2022-11-05T20:43:42.344Z,87.76
2022-11-05T20:46:11.796Z,88.96
2022-11-05T20:48:38.857Z,89.15
2022-11-05T20:51:06.689Z,87.79
2022-11-05T20:53:33.736Z,86.23
2022-11-05T20:56:06.550Z,83.32
2022-11-05T20:58:36.007Z,83.87
2022-11-05T21:01:05.149Z,83.85
2022-11-05T21:03:32.270Z,83.59
2022-11-05T21:06:03.987Z,84.14
2022-11-05T21:08:31.694Z,83.47
2022-11-05T21:10:58.966Z,80.23
2022-11-05T21:13:26.464Z,79.22
2022-11-05T21:15:56.952Z,77.96
2022-11-05T21:18:26.953Z,75.04
2022-11-05T21:20:54.228Z,74.01
2022-11-05T21:23:21.762Z,71.69
2022-11-05T21:25:49.649Z,72.57
2022-11-05T21:28:17.632Z,73.73
2022-11-05T21:30:48.350Z,76.94
2022-11-05T21:33:18.505Z,74.27
2022-11-05T21:35:49.561Z,73.24
2022-11-05T21:38:19.276Z,71.72
2022-11-05T21:40:47.064Z,71.45
2022-11-05T21:43:15.387Z,71.63
2022-11-05T21:45:44.261Z,72.17
2022-11-05T21:48:15.872Z,72.21
2022-11-05T21:51:02.835Z,71.46
2022-11-05T21:53:49.661Z,68.02
2022-11-05T21:56:39.627Z,69.12
2022-11-05T21:59:30.846Z,69.02
2022-11-05T22:02:02.711Z,68.75
2022-11-05T22:04:33.318Z,70.63
2022-11-05T22:07:01.326Z,67.89
2022-11-05T22:09:29.563Z,68.96
2022-11-05T22:11:59.155Z,67.92
2022-11-05T22:14:26.730Z,68.11
2022-11-05T22:16:54.149Z,67.33
2022-11-05T22:19:24.919Z,69.66
2022-11-05T22:21:53.759Z,69.68
2022-11-05T22:24:23.858Z,69.91
2022-11-05T22:26:51.712Z,71.45
2022-11-05T22:29:20.636Z,71.77
2022-11-05T22:31:49.547Z,71.43
2022-11-05T22:34:18.539Z,71.03
2022-11-05T22:36:46.360Z,71.31
2022-11-05T22:39:14.286Z,71.88
2022-11-05T22:41:43.245Z,71.27
2022-11-05T22:44:10.750Z,71.46
2022-11-05T22:46:38.200Z,68.42
2022-11-05T22:49:06.937Z,68.73
2022-11-05T22:51:35.890Z,69.59
2022-11-05T22:54:03.814Z,69.47
2022-11-05T22:56:33.725Z,68.14
2022-11-05T22:59:01.062Z,67.70
2022-11-05T23:01:29.698Z,66.63
2022-11-05T23:03:59.572Z,66.40
2022-11-05T23:06:50.445Z,67.28
2022-11-05T23:09:46.663Z,69.59
2022-11-05T23:12:28.220Z,68.72
2022-11-05T23:15:00.146Z,69.98
2022-11-05T23:17:47.080Z,71.89
2022-11-05T23:20:40.129Z,72.26
2022-11-05T23:23:31.844Z,71.12
2022-11-05T23:26:21.775Z,70.99
2022-11-05T23:28:49.895Z,70.99
2022-11-05T23:31:55.773Z,70.75
2022-11-05T23:34:29.524Z,70.86
2022-11-05T23:37:15.447Z,68.52
2022-11-05T23:39:43.159Z,67.74
2022-11-05T23:42:30.249Z,68.73
2022-11-05T23:45:19.052Z,68.63
2022-11-05T23:48:07.072Z,70.04
2022-11-05T23:50:39.806Z,71.43
2022-11-05T23:53:10.920Z,69.46
2022-11-05T23:55:39.834Z,69.16
2022-11-05T23:58:07.400Z,68.71
